createdAt,value
2019-03-24T00:02:25.290Z,29.05
2019-03-24T00:04:52.077Z,25.27
2019-03-24T00:07:18.928Z,29.37
2019-03-24T00:09:45.709Z,29.15
2019-03-24T00:12:12.540Z,25.17
2019-03-24T00:14:39.330Z,23.50
2019-03-24T00:17:06.369Z,28.27
2019-03-24T00:19:33.153Z,25.77
2019-03-24T00:21:59.990Z,27.67
2019-03-24T00:24:26.830Z,31.65
2019-03-24T00:26:53.608Z,30.13
2019-03-24T00:29:20.397Z,27.20
2019-03-24T00:31:47.363Z,28.55
2019-03-24T00:34:14.263Z,30.00
2019-03-24T00:36:41.153Z,27.87
2019-03-24T00:39:08.108Z,29.50
2019-03-24T00:41:34.980Z,30.30
2019-03-24T00:44:01.970Z,26.02
2019-03-24T00:46:28.853Z,27.17
2019-03-24T00:48:55.780Z,29.07
2019-03-24T00:51:22.644Z,27.95
2019-03-24T00:53:49.588Z,29.23
2019-03-24T00:56:16.569Z,28.67
2019-03-24T00:58:43.445Z,29.57
2019-03-24T01:01:10.711Z,27.10
2019-03-24T01:03:37.601Z,27.58
2019-03-24T01:06:04.356Z,26.33
2019-03-24T01:08:31.140Z,28.75
2019-03-24T01:10:57.986Z,28.77
2019-03-24T01:13:24.779Z,25.23
2019-03-24T01:15:51.617Z,24.85
2019-03-24T01:18:18.492Z,24.60
2019-03-24T01:20:45.288Z,29.90
2019-03-24T01:23:12.077Z,25.60
2019-03-24T01:25:38.917Z,24.80
2019-03-24T01:28:05.751Z,23.70
2019-03-24T01:30:32.544Z,22.85
2019-03-24T01:32:59.373Z,27.52
2019-03-24T01:35:26.200Z,25.30
2019-03-24T01:37:53.092Z,26.35
2019-03-24T01:40:19.927Z,24.30
2019-03-24T01:42:46.763Z,24.47
2019-03-24T01:45:13.545Z,27.58
2019-03-24T01:47:40.387Z,22.13
2019-03-24T01:50:07.365Z,25.75
2019-03-24T01:52:34.198Z,25.52
2019-03-24T01:55:01.029Z,24.83
2019-03-24T01:57:27.876Z,27.10
2019-03-24T01:59:54.660Z,25.82
2019-03-24T02:02:21.504Z,25.48
2019-03-24T02:04:48.375Z,23.95
2019-03-24T02:07:15.186Z,24.77
2019-03-24T02:09:42.014Z,27.75
2019-03-24T02:12:08.793Z,25.20
2019-03-24T02:14:35.628Z,30.20
2019-03-24T02:17:02.416Z,27.85
2019-03-24T02:19:29.253Z,22.70
2019-03-24T02:21:56.038Z,26.00
2019-03-24T02:24:22.879Z,23.67
2019-03-24T02:26:49.716Z,24.50
2019-03-24T02:29:16.501Z,25.50
2019-03-24T02:31:43.342Z,22.55
2019-03-24T02:34:10.122Z,20.40
2019-03-24T02:36:36.958Z,27.80
2019-03-24T02:39:06.093Z,24.63
2019-03-24T02:41:32.919Z,25.10
2019-03-24T02:43:59.765Z,24.65
2019-03-24T02:46:26.601Z,22.50
2019-03-24T02:48:53.385Z,26.80
2019-03-24T02:51:20.273Z,30.08
2019-03-24T02:53:47.162Z,27.65
2019-03-24T02:56:13.953Z,25.37
2019-03-24T02:58:40.786Z,23.32
2019-03-24T03:01:07.567Z,26.52
2019-03-24T03:03:34.357Z,30.65
2019-03-24T03:06:01.221Z,27.43
2019-03-24T03:08:29.940Z,27.52
2019-03-24T03:10:56.856Z,23.50
2019-03-24T03:13:23.691Z,25.17
2019-03-24T03:15:50.529Z,23.85
2019-03-24T03:18:17.308Z,28.10
2019-03-24T03:20:44.153Z,24.25
2019-03-24T03:23:10.932Z,22.13
2019-03-24T03:25:37.780Z,29.70
2019-03-24T03:28:04.616Z,26.93
2019-03-24T03:30:31.381Z,27.50
2019-03-24T03:32:58.194Z,26.07
2019-03-24T03:35:25.011Z,30.50
2019-03-24T03:37:51.791Z,32.28
2019-03-24T03:40:18.640Z,23.70
2019-03-24T03:42:45.507Z,32.25
2019-03-24T03:45:15.894Z,25.30
2019-03-24T03:47:42.729Z,25.25
2019-03-24T03:50:09.621Z,24.85
2019-03-24T03:52:36.454Z,25.17
2019-03-24T03:55:04.987Z,25.77
2019-03-24T03:57:31.817Z,25.33
2019-03-24T03:59:58.581Z,25.80
2019-03-24T04:02:25.937Z,28.35
2019-03-24T04:04:52.818Z,25.05
2019-03-24T04:07:19.654Z,24.50
2019-03-24T04:09:46.481Z,29.20
2019-03-24T04:12:14.373Z,28.42
2019-03-24T04:14:41.221Z,24.75
2019-03-24T04:17:08.226Z,25.60
2019-03-24T04:19:35.189Z,29.57
2019-03-24T04:22:01.978Z,25.15
2019-03-24T04:24:28.820Z,24.80
2019-03-24T04:26:55.602Z,25.65
2019-03-24T04:29:22.487Z,26.90
2019-03-24T04:31:49.243Z,22.95
2019-03-24T04:34:16.085Z,25.65
2019-03-24T04:36:42.869Z,29.80
2019-03-24T04:39:09.764Z,28.45
2019-03-24T04:41:36.540Z,26.42
2019-03-24T04:44:03.588Z,28.55
2019-03-24T04:46:30.421Z,27.10
2019-03-24T04:48:57.214Z,25.90
2019-03-24T04:51:24.049Z,25.68
2019-03-24T04:53:50.857Z,27.10
2019-03-24T04:56:17.673Z,27.37
2019-03-24T04:58:44.458Z,25.85
2019-03-24T05:01:11.289Z,22.17
2019-03-24T05:03:38.077Z,24.77
2019-03-24T05:06:05.037Z,27.95
2019-03-24T05:08:32.673Z,32.53
2019-03-24T05:10:59.457Z,26.10
2019-03-24T05:13:26.297Z,26.55
2019-03-24T05:15:53.405Z,27.27
2019-03-24T05:18:20.190Z,26.87
2019-03-24T05:20:47.053Z,23.30
2019-03-24T05:23:13.913Z,23.32
2019-03-24T05:25:40.692Z,23.90
2019-03-24T05:28:07.521Z,26.55
2019-03-24T05:30:34.316Z,25.20
2019-03-24T05:33:01.161Z,25.88
2019-03-24T05:35:27.992Z,24.50
2019-03-24T05:37:54.842Z,25.95
2019-03-24T05:40:21.680Z,24.82
2019-03-24T05:42:48.464Z,23.80
2019-03-24T05:45:15.308Z,23.98
2019-03-24T05:47:42.152Z,23.57
2019-03-24T05:50:09.030Z,23.32
2019-03-24T05:52:35.873Z,24.65
2019-03-24T05:55:04.074Z,24.12
2019-03-24T05:57:30.905Z,29.60
2019-03-24T05:59:57.809Z,24.50
2019-03-24T06:02:24.653Z,27.73
2019-03-24T06:04:51.493Z,25.05
2019-03-24T06:07:18.317Z,27.95
2019-03-24T06:09:45.156Z,21.63
2019-03-24T06:12:11.946Z,26.97
2019-03-24T06:14:38.740Z,27.82
2019-03-24T06:17:05.586Z,27.40
2019-03-24T06:19:32.372Z,26.60
2019-03-24T06:21:59.212Z,23.30
2019-03-24T06:24:26.012Z,26.23
2019-03-24T06:26:52.845Z,27.55
2019-03-24T06:29:19.688Z,30.08
2019-03-24T06:31:46.491Z,26.70
2019-03-24T06:34:13.349Z,27.80
2019-03-24T06:36:40.217Z,24.92
2019-03-24T06:39:07.369Z,22.73
2019-03-24T06:41:34.196Z,26.63
2019-03-24T06:44:01.036Z,28.05
2019-03-24T06:46:27.822Z,26.60
2019-03-24T06:48:54.678Z,26.23
2019-03-24T06:51:21.465Z,24.57
2019-03-24T06:53:48.256Z,23.42
2019-03-24T06:56:15.108Z,24.67
2019-03-24T06:58:41.902Z,22.35
2019-03-24T07:01:08.696Z,24.45
2019-03-24T07:03:35.538Z,26.17
2019-03-24T07:06:02.386Z,21.10
2019-03-24T07:08:29.356Z,24.05
2019-03-24T07:10:57.293Z,22.50
2019-03-24T07:13:24.162Z,24.37
2019-03-24T07:15:51.237Z,26.15
2019-03-24T07:18:18.229Z,22.42
2019-03-24T07:20:45.150Z,21.80
2019-03-24T07:23:12.088Z,22.98
2019-03-24T07:25:39.068Z,21.25
2019-03-24T07:28:07.070Z,25.43
2019-03-24T07:30:34.033Z,22.30
2019-03-24T07:33:00.896Z,24.52
2019-03-24T07:35:27.817Z,27.25
2019-03-24T07:37:54.792Z,25.35
2019-03-24T07:40:21.848Z,24.98
2019-03-24T07:42:48.662Z,28.20
2019-03-24T07:45:15.457Z,28.62
2019-03-24T07:47:42.304Z,30.57
2019-03-24T07:50:09.712Z,28.05
2019-03-24T07:52:36.497Z,32.30
2019-03-24T07:55:05.428Z,28.40
2019-03-24T07:57:32.212Z,30.52
2019-03-24T07:59:59.057Z,32.25
2019-03-24T08:02:25.853Z,30.10
2019-03-24T08:04:52.701Z,30.20
2019-03-24T08:07:19.535Z,27.67
2019-03-24T08:09:46.360Z,26.68
2019-03-24T08:12:13.148Z,31.00
2019-03-24T08:14:39.998Z,29.67
2019-03-24T08:17:06.784Z,30.65
2019-03-24T08:19:33.624Z,29.90
2019-03-24T08:22:00.709Z,27.37
2019-03-24T08:24:27.621Z,29.60
2019-03-24T08:26:54.460Z,30.97
2019-03-24T08:29:21.245Z,32.78
2019-03-24T08:31:48.090Z,32.40
2019-03-24T08:34:14.936Z,32.63
2019-03-24T08:36:41.728Z,34.27
2019-03-24T08:39:08.617Z,30.75
2019-03-24T08:41:35.521Z,34.23
2019-03-24T08:44:02.345Z,32.83
2019-03-24T08:46:29.248Z,32.80
2019-03-24T08:48:56.087Z,28.52
2019-03-24T08:51:22.885Z,32.60
2019-03-24T08:53:49.681Z,32.60
2019-03-24T08:56:16.529Z,31.33
2019-03-24T08:58:43.329Z,32.60
2019-03-24T09:01:10.197Z,33.15
2019-03-24T09:03:37.032Z,34.08
2019-03-24T09:06:03.873Z,34.43
2019-03-24T09:08:30.685Z,38.02
2019-03-24T09:10:57.528Z,38.20
2019-03-24T09:13:24.385Z,38.28
2019-03-24T09:15:51.250Z,35.85
2019-03-24T09:18:18.077Z,37.05
2019-03-24T09:20:44.947Z,35.17
2019-03-24T09:23:11.772Z,41.88
2019-03-24T09:25:38.548Z,43.07
2019-03-24T09:28:05.420Z,41.35
2019-03-24T09:30:33.965Z,44.25
2019-03-24T09:33:00.801Z,43.02
2019-03-24T09:35:27.582Z,46.55
2019-03-24T09:37:54.513Z,42.50
2019-03-24T09:40:33.897Z,43.65
2019-03-24T09:43:01.429Z,43.50
2019-03-24T09:45:30.373Z,49.53
2019-03-24T09:47:57.212Z,46.00
2019-03-24T09:50:24.048Z,44.25
2019-03-24T09:52:50.831Z,50.83
2019-03-24T09:55:17.773Z,41.77
2019-03-24T09:57:44.611Z,42.77
2019-03-24T10:00:11.393Z,48.00
2019-03-24T10:02:38.271Z,44.58
2019-03-24T10:05:05.159Z,47.85
2019-03-24T10:07:32.008Z,48.25
2019-03-24T10:09:58.793Z,49.98
2019-03-24T10:12:25.648Z,48.75
2019-03-24T10:14:52.429Z,47.03
2019-03-24T10:17:19.217Z,49.20
2019-03-24T10:19:46.046Z,48.83
2019-03-24T10:22:12.828Z,49.88
2019-03-24T10:24:39.724Z,49.35
2019-03-24T10:27:06.500Z,49.65
2019-03-24T10:29:33.335Z,51.68
2019-03-24T10:32:00.185Z,52.98
2019-03-24T10:34:26.969Z,50.30
2019-03-24T10:36:53.745Z,55.63
2019-03-24T10:39:20.588Z,48.38
2019-03-24T10:41:47.470Z,51.40
2019-03-24T10:44:14.309Z,50.88
2019-03-24T10:46:41.092Z,52.78
2019-03-24T10:49:07.928Z,51.40
2019-03-24T10:51:34.761Z,53.60
2019-03-24T10:54:01.558Z,54.53
2019-03-24T10:56:28.397Z,50.95
2019-03-24T10:58:55.236Z,54.27
2019-03-24T11:01:22.013Z,54.77
2019-03-24T11:03:48.854Z,52.53
2019-03-24T11:06:15.683Z,57.20
2019-03-24T11:08:42.508Z,52.53
2019-03-24T11:11:09.292Z,58.70
2019-03-24T11:13:36.187Z,61.85
2019-03-24T11:16:03.002Z,53.70
2019-03-24T11:18:29.848Z,52.80
2019-03-24T11:20:56.624Z,57.60
2019-03-24T11:23:23.590Z,55.78
2019-03-24T11:25:50.374Z,54.95
2019-03-24T11:28:19.152Z,59.65
2019-03-24T11:30:45.816Z,57.83
2019-03-24T11:33:12.629Z,60.52
2019-03-24T11:35:39.465Z,63.35
2019-03-24T11:38:06.441Z,58.15
2019-03-24T11:40:33.252Z,60.25
2019-03-24T11:43:00.084Z,58.10
2019-03-24T11:45:26.869Z,59.42
2019-03-24T11:47:53.703Z,53.13
2019-03-24T11:50:20.495Z,60.63
2019-03-24T11:52:48.536Z,59.88
2019-03-24T11:55:15.322Z,58.05
2019-03-24T11:57:42.154Z,54.35
2019-03-24T12:00:12.053Z,55.57
2019-03-24T12:02:38.949Z,56.58
2019-03-24T12:05:06.599Z,61.97
2019-03-24T12:07:33.485Z,61.35
2019-03-24T12:10:00.362Z,56.87
2019-03-24T12:12:27.143Z,56.70
2019-03-24T12:14:53.988Z,56.35
2019-03-24T12:17:20.778Z,58.90
2019-03-24T12:19:56.474Z,54.40
2019-03-24T12:22:17.317Z,54.83
2019-03-24T12:24:44.161Z,51.20
2019-03-24T12:27:10.944Z,54.80
2019-03-24T12:29:37.791Z,54.55
2019-03-24T12:32:04.581Z,51.00
2019-03-24T12:34:31.412Z,52.48
2019-03-24T12:36:58.253Z,51.73
2019-03-24T12:39:25.137Z,51.33
2019-03-24T12:41:51.973Z,53.52
2019-03-24T12:44:18.767Z,56.25
2019-03-24T12:46:45.602Z,54.70
2019-03-24T12:49:12.588Z,50.92
2019-03-24T12:51:39.373Z,50.67
2019-03-24T12:54:06.164Z,55.60
2019-03-24T12:56:33.012Z,51.27
2019-03-24T12:58:59.897Z,57.27
2019-03-24T13:01:26.943Z,51.95
2019-03-24T13:03:53.763Z,67.65
2019-03-24T13:06:20.601Z,53.98
2019-03-24T13:08:47.538Z,52.90
2019-03-24T13:11:14.328Z,49.53
2019-03-24T13:13:41.229Z,55.17
2019-03-24T13:16:08.104Z,51.83
2019-03-24T13:18:34.948Z,57.20
2019-03-24T13:21:01.733Z,52.60
2019-03-24T13:23:28.529Z,53.38
2019-03-24T13:25:55.361Z,44.88
2019-03-24T13:28:22.281Z,51.55
2019-03-24T13:30:49.148Z,48.90
2019-03-24T13:33:16.195Z,52.95
2019-03-24T13:35:43.139Z,47.85
2019-03-24T13:38:10.186Z,51.70
2019-03-24T13:40:37.132Z,50.63
2019-03-24T13:43:04.020Z,45.85
2019-03-24T13:45:30.800Z,49.18
2019-03-24T13:47:57.699Z,48.30
2019-03-24T13:50:31.343Z,49.35
2019-03-24T13:52:53.141Z,53.95
2019-03-24T13:55:19.929Z,49.00
2019-03-24T13:57:46.761Z,43.80
2019-03-24T14:00:14.649Z,49.00
2019-03-24T14:02:41.493Z,50.78
2019-03-24T14:05:08.351Z,43.20
2019-03-24T14:07:35.258Z,44.73
2019-03-24T14:10:03.536Z,44.70
2019-03-24T14:12:30.353Z,42.95
2019-03-24T14:14:57.318Z,43.52
2019-03-24T14:17:24.366Z,44.93
2019-03-24T14:19:51.189Z,47.73
2019-03-24T14:22:19.277Z,44.42
2019-03-24T14:24:46.323Z,46.00
2019-03-24T14:27:13.268Z,46.20
2019-03-24T14:29:40.315Z,48.48
2019-03-24T14:32:07.260Z,46.10
2019-03-24T14:34:34.237Z,48.75
2019-03-24T14:37:01.148Z,42.85
2019-03-24T14:39:28.197Z,47.65
2019-03-24T14:41:55.139Z,43.50
2019-03-24T14:44:22.082Z,47.67
2019-03-24T14:46:49.129Z,44.60
2019-03-24T14:49:16.178Z,43.90
2019-03-24T14:51:43.223Z,48.55
2019-03-24T14:54:10.171Z,44.67
2019-03-24T14:56:37.214Z,49.93
2019-03-24T14:59:04.158Z,47.05
2019-03-24T15:01:31.102Z,44.03
2019-03-24T15:03:58.149Z,48.23
2019-03-24T15:06:25.093Z,47.05
2019-03-24T15:08:52.037Z,47.08
2019-03-24T15:11:19.086Z,49.85
2019-03-24T15:13:45.816Z,48.20
2019-03-24T15:16:12.768Z,48.85
2019-03-24T15:18:39.713Z,49.93
2019-03-24T15:21:06.659Z,45.05
2019-03-24T15:23:34.148Z,48.48
2019-03-24T15:26:00.945Z,42.17
2019-03-24T15:28:27.729Z,52.30
2019-03-24T15:30:54.569Z,48.10
2019-03-24T15:33:21.358Z,46.88
2019-03-24T15:35:48.255Z,45.30
2019-03-24T15:38:15.042Z,49.40
2019-03-24T15:40:42.005Z,46.13
2019-03-24T15:43:08.881Z,46.02
2019-03-24T15:45:36.218Z,44.48
2019-03-24T15:48:03.149Z,44.83
2019-03-24T15:50:29.933Z,43.30
2019-03-24T15:52:56.776Z,44.27
2019-03-24T15:55:23.561Z,44.67
2019-03-24T15:57:50.410Z,46.83
2019-03-24T16:00:20.809Z,47.43
2019-03-24T16:02:47.594Z,49.15
2019-03-24T16:05:14.443Z,47.35
2019-03-24T16:07:41.228Z,48.00
2019-03-24T16:10:08.380Z,47.67
2019-03-24T16:12:35.268Z,50.25
2019-03-24T16:15:03.856Z,47.43
2019-03-24T16:17:30.700Z,44.98
2019-03-24T16:19:57.485Z,45.67
2019-03-24T16:22:24.280Z,42.60
2019-03-24T16:24:51.173Z,47.78
2019-03-24T16:27:18.020Z,43.78
2019-03-24T16:29:44.857Z,45.23
2019-03-24T16:32:11.641Z,41.90
2019-03-24T16:34:38.490Z,42.98
2019-03-24T16:37:05.268Z,47.08
2019-03-24T16:39:32.116Z,46.25
2019-03-24T16:41:58.909Z,48.92
2019-03-24T16:44:25.692Z,47.38
2019-03-24T16:46:52.695Z,49.38
2019-03-24T16:49:19.876Z,45.38
2019-03-24T16:51:46.717Z,47.15
2019-03-24T16:54:13.552Z,46.05
2019-03-24T16:56:40.380Z,46.30
2019-03-24T16:59:07.217Z,48.03
2019-03-24T17:01:34.003Z,47.33
2019-03-24T17:04:01.345Z,43.40
2019-03-24T17:06:28.187Z,43.90
2019-03-24T17:08:54.960Z,44.63
2019-03-24T17:11:22.099Z,43.78
2019-03-24T17:13:48.885Z,41.88
2019-03-24T17:16:15.744Z,47.50
2019-03-24T17:18:42.525Z,39.25
2019-03-24T17:21:09.376Z,44.20
2019-03-24T17:23:36.152Z,45.05
2019-03-24T17:26:03.433Z,38.25
2019-03-24T17:28:30.564Z,37.50
2019-03-24T17:30:57.343Z,36.77
2019-03-24T17:33:24.197Z,37.08
2019-03-24T17:35:51.073Z,42.27
2019-03-24T17:38:17.914Z,38.30
2019-03-24T17:40:44.755Z,37.13
2019-03-24T17:43:11.616Z,35.10
2019-03-24T17:45:38.452Z,39.58
2019-03-24T17:48:05.275Z,53.90
2019-03-24T17:50:32.101Z,40.52
2019-03-24T17:52:58.931Z,42.88
2019-03-24T17:55:27.909Z,54.80
2019-03-24T17:57:54.369Z,47.20
2019-03-24T18:00:37.096Z,48.42
2019-03-24T18:03:03.938Z,45.28
2019-03-24T18:05:30.725Z,49.60
2019-03-24T18:07:57.557Z,49.85
2019-03-24T18:10:24.353Z,45.67
2019-03-24T18:12:51.184Z,50.83
2019-03-24T18:15:18.180Z,50.38
2019-03-24T18:17:45.359Z,54.77
2019-03-24T18:20:17.188Z,49.18
2019-03-24T18:22:44.011Z,53.83
2019-03-24T18:25:10.861Z,53.60
2019-03-24T18:27:37.695Z,51.70
2019-03-24T18:30:10.073Z,52.20
2019-03-24T18:32:36.898Z,56.00
2019-03-24T18:35:06.740Z,52.85
2019-03-24T18:37:33.524Z,56.70
2019-03-24T18:40:00.857Z,57.80
2019-03-24T18:42:29.450Z,55.15
2019-03-24T18:44:56.232Z,57.98
2019-03-24T18:47:23.270Z,60.35
2019-03-24T18:49:50.132Z,61.23
2019-03-24T18:52:22.573Z,63.00
2019-03-24T18:54:45.583Z,62.35
2019-03-24T18:57:12.492Z,64.72
2019-03-24T18:59:39.277Z,73.40
2019-03-24T19:02:06.168Z,65.22
2019-03-24T19:04:33.036Z,74.53
2019-03-24T19:06:59.824Z,67.50
2019-03-24T19:09:26.656Z,66.92
2019-03-24T19:11:53.496Z,68.67
2019-03-24T19:14:20.342Z,63.38
2019-03-24T19:16:47.132Z,67.25
2019-03-24T19:19:14.060Z,67.93
2019-03-24T19:21:40.845Z,66.90
2019-03-24T19:24:07.680Z,64.60
2019-03-24T19:26:34.532Z,64.95
2019-03-24T19:29:01.312Z,62.03
2019-03-24T19:31:28.196Z,60.75
2019-03-24T19:33:55.431Z,59.05
2019-03-24T19:36:22.220Z,63.90
2019-03-24T19:38:49.049Z,57.93
2019-03-24T19:41:16.231Z,62.93
2019-03-24T19:43:43.042Z,62.03
2019-03-24T19:46:09.836Z,63.78
2019-03-24T19:48:36.673Z,60.67
2019-03-24T19:51:03.591Z,60.80
2019-03-24T19:53:30.410Z,63.53
2019-03-24T19:55:58.224Z,60.95
2019-03-24T19:58:25.072Z,60.60
2019-03-24T20:00:51.857Z,62.23
2019-03-24T20:03:20.449Z,62.53
2019-03-24T20:05:47.298Z,60.55
2019-03-24T20:08:16.238Z,61.28
2019-03-24T20:10:43.118Z,58.40
2019-03-24T20:13:11.760Z,58.15
2019-03-24T20:15:38.544Z,58.48
2019-03-24T20:18:05.405Z,59.53
2019-03-24T20:20:32.189Z,57.80
2019-03-24T20:22:58.977Z,61.37
2019-03-24T20:25:27.630Z,62.43
2019-03-24T20:27:54.904Z,59.27
2019-03-24T20:30:24.397Z,59.17
2019-03-24T20:32:53.248Z,60.20
2019-03-24T20:35:20.211Z,60.80
2019-03-24T20:37:47.121Z,59.70
2019-03-24T20:40:14.162Z,60.73
2019-03-24T20:42:41.006Z,61.68
2019-03-24T20:45:08.495Z,60.50
2019-03-24T20:47:40.275Z,60.17
2019-03-24T20:50:08.113Z,59.27
2019-03-24T20:52:34.904Z,63.00
2019-03-24T20:55:01.999Z,67.82
2019-03-24T20:57:28.842Z,64.62
2019-03-24T20:59:55.680Z,65.87
2019-03-24T21:02:22.469Z,63.73
2019-03-24T21:04:49.317Z,68.42
2019-03-24T21:07:16.152Z,65.87
2019-03-24T21:09:42.957Z,64.22
2019-03-24T21:12:09.797Z,64.92
2019-03-24T21:14:36.625Z,60.37
2019-03-24T21:17:04.970Z,64.82
2019-03-24T21:19:31.765Z,65.13
2019-03-24T21:21:58.725Z,67.10
2019-03-24T21:24:25.518Z,68.25
2019-03-24T21:26:52.321Z,57.53
2019-03-24T21:29:19.165Z,64.97
2019-03-24T21:31:46.006Z,61.68
2019-03-24T21:34:12.897Z,60.52
2019-03-24T21:36:39.745Z,62.00
2019-03-24T21:39:06.942Z,66.53
2019-03-24T21:41:33.949Z,61.48
2019-03-24T21:44:00.784Z,61.87
2019-03-24T21:46:27.744Z,67.35
2019-03-24T21:48:54.617Z,63.23
2019-03-24T21:51:21.554Z,69.45
2019-03-24T21:53:48.393Z,63.55
2019-03-24T21:56:15.274Z,64.70
2019-03-24T21:58:42.124Z,61.02
2019-03-24T22:01:08.962Z,62.20
2019-03-24T22:03:35.749Z,62.20
2019-03-24T22:06:02.591Z,68.20
2019-03-24T22:08:29.944Z,73.50
2019-03-24T22:10:56.861Z,69.37
2019-03-24T22:13:23.653Z,71.40
2019-03-24T22:15:50.445Z,72.22
2019-03-24T22:18:17.297Z,76.20
2019-03-24T22:20:48.960Z,65.37
2019-03-24T22:23:12.777Z,69.80
2019-03-24T22:25:39.608Z,70.57
2019-03-24T22:28:06.402Z,65.97
2019-03-24T22:30:33.192Z,65.00
2019-03-24T22:33:00.028Z,64.82
2019-03-24T22:35:26.816Z,62.40
2019-03-24T22:37:53.678Z,63.58
2019-03-24T22:40:20.477Z,60.83
2019-03-24T22:42:47.516Z,60.25
2019-03-24T22:45:14.417Z,66.82
2019-03-24T22:47:41.302Z,62.50
2019-03-24T22:50:08.241Z,56.55
2019-03-24T22:52:35.069Z,62.03
2019-03-24T22:55:01.925Z,59.98
2019-03-24T22:57:28.709Z,64.07
2019-03-24T22:59:55.558Z,67.60
2019-03-24T23:02:22.342Z,58.13
2019-03-24T23:04:49.181Z,69.77
2019-03-24T23:07:15.973Z,66.92
2019-03-24T23:09:42.809Z,70.97
2019-03-24T23:12:09.602Z,64.47
2019-03-24T23:14:36.517Z,68.40
2019-03-24T23:17:03.371Z,64.90
2019-03-24T23:19:30.205Z,65.55
2019-03-24T23:21:57.002Z,65.52
2019-03-24T23:24:23.849Z,68.83
2019-03-24T23:26:50.633Z,66.27
2019-03-24T23:29:17.475Z,59.18
2019-03-24T23:31:45.121Z,67.20
2019-03-24T23:34:11.968Z,69.62
2019-03-24T23:36:38.813Z,63.60
2019-03-24T23:39:06.005Z,63.80
2019-03-24T23:41:32.849Z,66.85
2019-03-24T23:43:59.642Z,72.30
2019-03-24T23:46:26.504Z,71.45
2019-03-24T23:48:53.345Z,70.65
2019-03-24T23:51:20.136Z,57.70
2019-03-24T23:53:46.994Z,52.67
2019-03-24T23:56:13.790Z,69.20
2019-03-24T23:58:41.352Z,59.65
